WALL/BPN METAR and TAF weather

Enter ICAO airport designator
Station Type Date Time Source
WALL METAR 2020/07/11 03:00 UTC NOAA

WALL 110300Z 23006KT 9999 FEW020 29/27 Q1009


Station Type Date Time Source
WALL Decoded METAR 2020/07/11 03:00 UTC NOAA

Station name not available
Jul 10, 2020 - 11:00 PM EDT / 2020.07.11 0300 UTC
Wind: from the SW (230 degrees) at 7 MPH (6 KT):0
Visibility: greater than 7 mile(s):0
Sky conditions: mostly clear
Temperature: 84 F (29 C)
Dew Point: 80 F (27 C)
Relative Humidity: 88%
Pressure (altimeter): 29.80 in. Hg (1009 hPa)
ob: WALL 110300Z 23006KT 9999 FEW020 29/27 Q1009
cycle: 3

Station Type Date Time Source
WALL TAF 2020/07/10 18:00 UTC NOAA

TAF WALL 101700Z 1018/1124 24004KT 9000 SCT018
TEMPO 1022/1101 FEW018CB

Example: see airport list